sensor_id;sensor_type;location;lat;lon;timestamp;temperature;humidity
20594;DHT22;10455;48.732;10.266;2023-04-01T00:04:21;6.60;99.90
20594;DHT22;10455;48.732;10.266;2023-04-01T00:09:23;6.60;99.90
20594;DHT22;10455;48.732;10.266;2023-04-01T00:14:25;6.50;99.90
20594;DHT22;10455;48.732;10.266;2023-04-01T00:19:28;6.50;99.90
20594;DHT22;10455;48.732;10.266;2023-04-01T00:24:30;6.40;99.90
20594;DHT22;10455;48.732;10.266;2023-04-01T00:29:32;6.40;99.90
20594;DHT22;10455;48.732;10.266;2023-04-01T00:34:35;6.40;99.90
20594;DHT22;10455;48.732;10.266;2023-04-01T00:39:37;6.50;99.90
20594;DHT22;10455;48.732;10.266;2023-04-01T00:44:40;6.60;99.90
20594;DHT22;10455;48.732;10.266;2023-04-01T00:49:46;6.60;99.90
20594;DHT22;10455;48.732;10.266;2023-04-01T00:54:51;6.80;99.90
20594;DHT22;10455;48.732;10.266;2023-04-01T00:59:55;6.70;99.90
20594;DHT22;10455;48.732;10.266;2023-04-01T01:04:58;6.80;99.90
20594;DHT22;10455;48.732;10.266;2023-04-01T01:10:04;6.80;99.90
20594;DHT22;10455;48.732;10.266;2023-04-01T01:15:15;6.70;99.90
20594;DHT22;10455;48.732;10.266;2023-04-01T01:20:53;6.70;99.90
20594;DHT22;10455;48.732;10.266;2023-04-01T01:26:09;6.80;99.90
20594;DHT22;10455;48.732;10.266;2023-04-01T01:31:21;6.80;99.90
20594;DHT22;10455;48.732;10.266;2023-04-01T01:36:27;6.60;99.90
20594;DHT22;10455;48.732;10.266;2023-04-01T01:41:31;6.90;99.90
20594;DHT22;10455;48.732;10.266;2023-04-01T01:46:34;7.00;99.90
20594;DHT22;10455;48.732;10.266;2023-04-01T01:51:38;6.90;99.90
20594;DHT22;10455;48.732;10.266;2023-04-01T01:56:41;7.00;99.90
20594;DHT22;10455;48.732;10.266;2023-04-01T02:01:47;7.00;99.90
20594;DHT22;10455;48.732;10.266;2023-04-01T02:06:55;7.10;99.90
20594;DHT22;10455;48.732;10.266;2023-04-01T02:12:02;7.00;99.90
20594;DHT22;10455;48.732;10.266;2023-04-01T02:17:08;6.70;99.90
20594;DHT22;10455;48.732;10.266;2023-04-01T02:22:15;6.60;99.90
20594;DHT22;10455;48.732;10.266;2023-04-01T02:27:18;6.60;99.90
20594;DHT22;10455;48.732;10.266;2023-04-01T02:32:21;6.80;99.90
20594;DHT22;10455;48.732;10.266;2023-04-01T02:37:24;6.80;99.90
20594;DHT22;10455;48.732;10.266;2023-04-01T02:42:26;6.70;99.90
20594;DHT22;10455;48.732;10.266;2023-04-01T02:47:28;6.80;99.90
20594;DHT22;10455;48.732;10.266;2023-04-01T02:52:32;6.90;99.90
20594;DHT22;10455;48.732;10.266;2023-04-01T02:57:33;7.00;99.90
20594;DHT22;10455;48.732;10.266;2023-04-01T03:02:35;7.10;99.90
20594;DHT22;10455;48.732;10.266;2023-04-01T03:07:39;6.90;99.90
20594;DHT22;10455;48.732;10.266;2023-04-01T03:12:41;6.80;99.90
20594;DHT22;10455;48.732;10.266;2023-04-01T03:17:42;6.80;99.90
20594;DHT22;10455;48.732;10.266;2023-04-01T03:22:46;6.90;99.90
20594;DHT22;10455;48.732;10.266;2023-04-01T03:27:48;6.80;99.90
20594;DHT22;10455;48.732;10.266;2023-04-01T03:32:50;6.90;99.90
20594;DHT22;10455;48.732;10.266;2023-04-01T03:37:53;7.00;99.90
20594;DHT22;10455;48.732;10.266;2023-04-01T03:42:55;7.00;99.90
20594;DHT22;10455;48.732;10.266;2023-04-01T03:47:57;6.70;99.90
20594;DHT22;10455;48.732;10.266;2023-04-01T03:53:01;6.30;99.90
20594;DHT22;10455;48.732;10.266;2023-04-01T03:58:03;6.50;99.90
20594;DHT22;10455;48.732;10.266;2023-04-01T04:03:06;6.50;99.90
20594;DHT22;10455;48.732;10.266;2023-04-01T04:08:09;6.50;99.90
20594;DHT22;10455;48.732;10.266;2023-04-01T04:13:11;6.50;99.90
20594;DHT22;10455;48.732;10.266;2023-04-01T04:18:13;6.70;99.90
20594;DHT22;10455;48.732;10.266;2023-04-01T04:23:16;6.60;99.90
20594;DHT22;10455;48.732;10.266;2023-04-01T04:28:18;6.50;99.90
20594;DHT22;10455;48.732;10.266;2023-04-01T04:33:21;6.50;99.90
20594;DHT22;10455;48.732;10.266;2023-04-01T04:38:25;6.50;99.90
20594;DHT22;10455;48.732;10.266;2023-04-01T04:43:27;6.70;99.90
20594;DHT22;10455;48.732;10.266;2023-04-01T04:48:29;6.60;99.90
20594;DHT22;10455;48.732;10.266;2023-04-01T04:53:32;6.60;99.90
20594;DHT22;10455;48.732;10.266;2023-04-01T04:58:35;6.40;99.90
20594;DHT22;10455;48.732;10.266;2023-04-01T05:03:37;6.30;99.90
20594;DHT22;10455;48.732;10.266;2023-04-01T05:08:41;6.10;99.90
20594;DHT22;10455;48.732;10.266;2023-04-01T05:13:44;6.00;99.90
20594;DHT22;10455;48.732;10.266;2023-04-01T05:18:47;6.00;99.90
20594;DHT22;10455;48.732;10.266;2023-04-01T05:23:50;6.10;99.90
20594;DHT22;10455;48.732;10.266;2023-04-01T05:28:52;6.10;99.90
20594;DHT22;10455;48.732;10.266;2023-04-01T05:33:54;6.20;99.90
20594;DHT22;10455;48.732;10.266;2023-04-01T05:38:58;6.30;99.90
20594;DHT22;10455;48.732;10.266;2023-04-01T05:43:59;6.30;99.90
20594;DHT22;10455;48.732;10.266;2023-04-01T05:49:01;6.40;99.90
20594;DHT22;10455;48.732;10.266;2023-04-01T05:54:06;6.40;99.90
20594;DHT22;10455;48.732;10.266;2023-04-01T05:59:10;6.80;99.90
20594;DHT22;10455;48.732;10.266;2023-04-01T06:04:14;6.90;99.90
20594;DHT22;10455;48.732;10.266;2023-04-01T06:09:19;7.00;99.90
20594;DHT22;10455;48.732;10.266;2023-04-01T06:14:33;7.20;99.90
20594;DHT22;10455;48.732;10.266;2023-04-01T06:19:44;7.00;99.90
20594;DHT22;10455;48.732;10.266;2023-04-01T06:25:05;7.60;99.90
20594;DHT22;10455;48.732;10.266;2023-04-01T06:30:31;8.90;99.90
20594;DHT22;10455;48.732;10.266;2023-04-01T06:35:44;8.50;99.90
20594;DHT22;10455;48.732;10.266;2023-04-01T06:46:45;8.40;99.90
20594;DHT22;10455;48.732;10.266;2023-04-01T06:51:54;8.50;99.90
20594;DHT22;10455;48.732;10.266;2023-04-01T06:57:02;9.50;99.90
20594;DHT22;10455;48.732;10.266;2023-04-01T07:02:16;9.60;99.90
20594;DHT22;10455;48.732;10.266;2023-04-01T07:07:26;9.60;99.90
20594;DHT22;10455;48.732;10.266;2023-04-01T07:12:38;9.80;99.90
20594;DHT22;10455;48.732;10.266;2023-04-01T07:17:44;9.60;99.90
20594;DHT22;10455;48.732;10.266;2023-04-01T07:22:49;9.00;99.90
20594;DHT22;10455;48.732;10.266;2023-04-01T07:27:59;9.30;99.90
20594;DHT22;10455;48.732;10.266;2023-04-01T07:33:05;8.80;99.90
20594;DHT22;10455;48.732;10.266;2023-04-01T07:38:18;8.30;99.90
20594;DHT22;10455;48.732;10.266;2023-04-01T07:43:40;8.20;99.90
20594;DHT22;10455;48.732;10.266;2023-04-01T07:48:49;8.10;99.90
20594;DHT22;10455;48.732;10.266;2023-04-01T07:53:59;8.00;99.90
20594;DHT22;10455;48.732;10.266;2023-04-01T07:59:11;8.20;99.90
20594;DHT22;10455;48.732;10.266;2023-04-01T08:04:35;8.30;99.90
20594;DHT22;10455;48.732;10.266;2023-04-01T08:09:44;8.10;99.90
20594;DHT22;10455;48.732;10.266;2023-04-01T08:15:08;8.30;99.90
20594;DHT22;10455;48.732;10.266;2023-04-01T08:20:25;8.20;99.90
20594;DHT22;10455;48.732;10.266;2023-04-01T08:25:30;8.00;99.90
20594;DHT22;10455;48.732;10.266;2023-04-01T08:30:40;8.10;99.90
20594;DHT22;10455;48.732;10.266;2023-04-01T08:35:47;8.00;99.90
20594;DHT22;10455;48.732;10.266;2023-04-01T08:41:06;7.90;99.90
20594;DHT22;10455;48.732;10.266;2023-04-01T08:52:03;8.10;99.90
20594;DHT22;10455;48.732;10.266;2023-04-01T08:57:15;8.30;99.90
20594;DHT22;10455;48.732;10.266;2023-04-01T09:02:53;8.30;99.90
20594;DHT22;10455;48.732;10.266;2023-04-01T09:08:04;8.30;99.90
20594;DHT22;10455;48.732;10.266;2023-04-01T09:19:02;8.60;99.90
20594;DHT22;10455;48.732;10.266;2023-04-01T09:24:34;8.60;99.90
20594;DHT22;10455;48.732;10.266;2023-04-01T09:30:06;8.30;99.90
20594;DHT22;10455;48.732;10.266;2023-04-01T09:35:22;8.10;99.90
20594;DHT22;10455;48.732;10.266;2023-04-01T09:40:33;8.10;99.90
20594;DHT22;10455;48.732;10.266;2023-04-01T09:45:47;7.90;99.90
20594;DHT22;10455;48.732;10.266;2023-04-01T09:50:56;8.00;99.90
20594;DHT22;10455;48.732;10.266;2023-04-01T10:01:51;7.90;99.90
20594;DHT22;10455;48.732;10.266;2023-04-01T10:12:47;8.10;99.90
20594;DHT22;10455;48.732;10.266;2023-04-01T10:18:26;8.20;99.90
20594;DHT22;10455;48.732;10.266;2023-04-01T10:29:10;7.70;99.90
20594;DHT22;10455;48.732;10.266;2023-04-01T10:40:12;8.60;99.90
20594;DHT22;10455;48.732;10.266;2023-04-01T10:45:43;7.90;99.90
20594;DHT22;10455;48.732;10.266;2023-04-01T10:51:18;8.20;99.90
20594;DHT22;10455;48.732;10.266;2023-04-01T10:56:39;8.20;99.90
20594;DHT22;10455;48.732;10.266;2023-04-01T11:07:48;8.70;99.90
20594;DHT22;10455;48.732;10.266;2023-04-01T11:30:34;8.90;99.90
20594;DHT22;10455;48.732;10.266;2023-04-01T11:35:55;9.60;99.90
20594;DHT22;10455;48.732;10.266;2023-04-01T11:46:10;9.40;99.90
20594;DHT22;10455;48.732;10.266;2023-04-01T11:51:38;9.20;99.90
20594;DHT22;10455;48.732;10.266;2023-04-01T11:56:56;8.80;99.90
20594;DHT22;10455;48.732;10.266;2023-04-01T12:02:08;8.90;99.90
20594;DHT22;10455;48.732;10.266;2023-04-01T12:07:24;8.60;99.90
20594;DHT22;10455;48.732;10.266;2023-04-01T12:12:35;8.60;99.90
20594;DHT22;10455;48.732;10.266;2023-04-01T12:17:46;8.60;99.90
20594;DHT22;10455;48.732;10.266;2023-04-01T12:22:58;9.10;99.90
20594;DHT22;10455;48.732;10.266;2023-04-01T12:28:10;9.00;99.90
20594;DHT22;10455;48.732;10.266;2023-04-01T12:33:30;9.00;99.90
20594;DHT22;10455;48.732;10.266;2023-04-01T12:38:44;9.40;99.90
20594;DHT22;10455;48.732;10.266;2023-04-01T12:49:51;9.70;99.90
20594;DHT22;10455;48.732;10.266;2023-04-01T13:00:44;10.00;99.90
20594;DHT22;10455;48.732;10.266;2023-04-01T13:06:16;10.50;99.90
20594;DHT22;10455;48.732;10.266;2023-04-01T13:11:26;10.40;99.90
20594;DHT22;10455;48.732;10.266;2023-04-01T13:16:31;10.20;99.90
20594;DHT22;10455;48.732;10.266;2023-04-01T13:21:44;9.60;99.90
20594;DHT22;10455;48.732;10.266;2023-04-01T13:26:55;9.70;99.90
20594;DHT22;10455;48.732;10.266;2023-04-01T13:32:18;10.00;99.90
20594;DHT22;10455;48.732;10.266;2023-04-01T13:37:32;10.60;99.90
20594;DHT22;10455;48.732;10.266;2023-04-01T13:42:40;10.50;99.90
20594;DHT22;10455;48.732;10.266;2023-04-01T13:53:42;10.40;99.90
20594;DHT22;10455;48.732;10.266;2023-04-01T14:04:56;10.60;99.90
20594;DHT22;10455;48.732;10.266;2023-04-01T14:10:24;10.60;99.90
20594;DHT22;10455;48.732;10.266;2023-04-01T14:15:50;10.50;99.90
20594;DHT22;10455;48.732;10.266;2023-04-01T14:21:16;10.50;99.90
20594;DHT22;10455;48.732;10.266;2023-04-01T14:32:18;10.40;99.90
20594;DHT22;10455;48.732;10.266;2023-04-01T14:43:47;10.80;99.90
20594;DHT22;10455;48.732;10.266;2023-04-01T14:48:53;10.70;99.90
20594;DHT22;10455;48.732;10.266;2023-04-01T14:54:04;10.80;99.90
20594;DHT22;10455;48.732;10.266;2023-04-01T14:59:32;10.40;99.90
20594;DHT22;10455;48.732;10.266;2023-04-01T15:05:08;10.60;99.90
20594;DHT22;10455;48.732;10.266;2023-04-01T15:10:24;10.60;99.90
20594;DHT22;10455;48.732;10.266;2023-04-01T15:15:44;10.40;99.90
20594;DHT22;10455;48.732;10.266;2023-04-01T15:26:32;10.20;99.90
20594;DHT22;10455;48.732;10.266;2023-04-01T15:31:38;10.20;99.90
20594;DHT22;10455;48.732;10.266;2023-04-01T15:36:46;10.30;99.90
20594;DHT22;10455;48.732;10.266;2023-04-01T15:42:06;10.00;99.90
20594;DHT22;10455;48.732;10.266;2023-04-01T15:47:40;9.90;99.90
20594;DHT22;10455;48.732;10.266;2023-04-01T15:52:49;9.60;99.90
20594;DHT22;10455;48.732;10.266;2023-04-01T15:58:29;9.50;99.90
20594;DHT22;10455;48.732;10.266;2023-04-01T16:03:39;9.60;99.90
20594;DHT22;10455;48.732;10.266;2023-04-01T16:09:05;9.50;99.90
20594;DHT22;10455;48.732;10.266;2023-04-01T16:14:20;9.50;99.90
20594;DHT22;10455;48.732;10.266;2023-04-01T16:19:37;9.60;99.90
20594;DHT22;10455;48.732;10.266;2023-04-01T16:24:44;9.30;99.90
20594;DHT22;10455;48.732;10.266;2023-04-01T16:29:50;9.30;99.90
20594;DHT22;10455;48.732;10.266;2023-04-01T16:35:03;8.90;99.90
20594;DHT22;10455;48.732;10.266;2023-04-01T16:40:16;8.90;99.90
20594;DHT22;10455;48.732;10.266;2023-04-01T16:45:32;8.60;99.90
20594;DHT22;10455;48.732;10.266;2023-04-01T16:50:49;8.50;99.90
20594;DHT22;10455;48.732;10.266;2023-04-01T16:55:58;8.40;99.90
20594;DHT22;10455;48.732;10.266;2023-04-01T17:01:08;8.20;99.90
20594;DHT22;10455;48.732;10.266;2023-04-01T17:06:23;8.30;99.90
20594;DHT22;10455;48.732;10.266;2023-04-01T17:11:33;8.40;99.90
20594;DHT22;10455;48.732;10.266;2023-04-01T17:17:06;8.20;99.90
20594;DHT22;10455;48.732;10.266;2023-04-01T17:22:22;8.30;99.90
20594;DHT22;10455;48.732;10.266;2023-04-01T17:27:38;8.30;99.90
20594;DHT22;10455;48.732;10.266;2023-04-01T17:32:51;8.00;99.90
20594;DHT22;10455;48.732;10.266;2023-04-01T17:38:06;8.00;99.90
20594;DHT22;10455;48.732;10.266;2023-04-01T17:43:24;8.10;99.90
20594;DHT22;10455;48.732;10.266;2023-04-01T17:48:38;8.00;99.90
20594;DHT22;10455;48.732;10.266;2023-04-01T17:53:47;8.00;99.90
20594;DHT22;10455;48.732;10.266;2023-04-01T17:59:02;8.00;99.90
20594;DHT22;10455;48.732;10.266;2023-04-01T18:04:31;7.90;99.90
20594;DHT22;10455;48.732;10.266;2023-04-01T18:09:45;8.00;99.90
20594;DHT22;10455;48.732;10.266;2023-04-01T18:15:06;8.10;99.90
20594;DHT22;10455;48.732;10.266;2023-04-01T18:20:30;8.00;99.90
20594;DHT22;10455;48.732;10.266;2023-04-01T18:25:34;7.90;99.90
20594;DHT22;10455;48.732;10.266;2023-04-01T18:30:40;7.70;99.90
20594;DHT22;10455;48.732;10.266;2023-04-01T18:35:48;7.70;99.90
20594;DHT22;10455;48.732;10.266;2023-04-01T18:41:01;7.70;99.90
20594;DHT22;10455;48.732;10.266;2023-04-01T18:46:08;7.70;99.90
20594;DHT22;10455;48.732;10.266;2023-04-01T18:51:16;7.70;99.90
20594;DHT22;10455;48.732;10.266;2023-04-01T18:56:26;7.80;99.90
20594;DHT22;10455;48.732;10.266;2023-04-01T19:01:36;7.80;99.90
20594;DHT22;10455;48.732;10.266;2023-04-01T19:06:44;7.90;99.90
20594;DHT22;10455;48.732;10.266;2023-04-01T19:12:06;7.90;99.90
20594;DHT22;10455;48.732;10.266;2023-04-01T19:17:21;8.00;99.90
20594;DHT22;10455;48.732;10.266;2023-04-01T19:22:40;8.10;99.90
20594;DHT22;10455;48.732;10.266;2023-04-01T19:27:49;7.90;99.90
20594;DHT22;10455;48.732;10.266;2023-04-01T19:32:58;8.00;99.90
20594;DHT22;10455;48.732;10.266;2023-04-01T19:38:07;8.10;99.90
20594;DHT22;10455;48.732;10.266;2023-04-01T19:43:23;7.90;99.90
20594;DHT22;10455;48.732;10.266;2023-04-01T19:48:44;7.90;99.90
20594;DHT22;10455;48.732;10.266;2023-04-01T19:53:55;7.80;99.90
20594;DHT22;10455;48.732;10.266;2023-04-01T19:59:04;7.80;99.90
20594;DHT22;10455;48.732;10.266;2023-04-01T20:04:14;7.30;99.90
20594;DHT22;10455;48.732;10.266;2023-04-01T20:09:40;7.30;99.90
20594;DHT22;10455;48.732;10.266;2023-04-01T20:14:47;7.00;99.90
20594;DHT22;10455;48.732;10.266;2023-04-01T20:19:58;7.10;99.90
20594;DHT22;10455;48.732;10.266;2023-04-01T20:25:05;7.10;99.90
20594;DHT22;10455;48.732;10.266;2023-04-01T20:36:13;7.00;99.90
20594;DHT22;10455;48.732;10.266;2023-04-01T20:41:23;6.80;99.90
20594;DHT22;10455;48.732;10.266;2023-04-01T20:46:33;6.60;99.90
20594;DHT22;10455;48.732;10.266;2023-04-01T20:51:41;6.60;99.90
20594;DHT22;10455;48.732;10.266;2023-04-01T20:56:55;6.50;99.90
20594;DHT22;10455;48.732;10.266;2023-04-01T21:02:24;6.60;99.90
20594;DHT22;10455;48.732;10.266;2023-04-01T21:07:33;6.50;99.90
20594;DHT22;10455;48.732;10.266;2023-04-01T21:12:42;6.50;99.90
20594;DHT22;10455;48.732;10.266;2023-04-01T21:18:00;6.70;99.90
20594;DHT22;10455;48.732;10.266;2023-04-01T21:23:24;7.00;99.90
20594;DHT22;10455;48.732;10.266;2023-04-01T21:28:45;7.20;99.90
20594;DHT22;10455;48.732;10.266;2023-04-01T21:39:48;6.80;99.90
20594;DHT22;10455;48.732;10.266;2023-04-01T21:45:25;7.00;99.90
20594;DHT22;10455;48.732;10.266;2023-04-01T21:50:55;7.10;99.90
20594;DHT22;10455;48.732;10.266;2023-04-01T21:56:24;7.10;99.90
20594;DHT22;10455;48.732;10.266;2023-04-01T22:02:16;7.20;99.90
20594;DHT22;10455;48.732;10.266;2023-04-01T22:07:26;7.20;99.90
20594;DHT22;10455;48.732;10.266;2023-04-01T22:12:36;7.20;99.90
20594;DHT22;10455;48.732;10.266;2023-04-01T22:17:46;7.30;99.90
20594;DHT22;10455;48.732;10.266;2023-04-01T22:22:58;7.40;99.90
20594;DHT22;10455;48.732;10.266;2023-04-01T22:28:07;7.40;99.90
20594;DHT22;10455;48.732;10.266;2023-04-01T22:33:15;7.10;99.90
20594;DHT22;10455;48.732;10.266;2023-04-01T22:38:29;6.90;99.90
20594;DHT22;10455;48.732;10.266;2023-04-01T22:43:37;6.80;99.90
20594;DHT22;10455;48.732;10.266;2023-04-01T22:48:42;6.70;99.90
20594;DHT22;10455;48.732;10.266;2023-04-01T22:53:59;6.80;99.90
20594;DHT22;10455;48.732;10.266;2023-04-01T22:59:09;6.80;99.90
20594;DHT22;10455;48.732;10.266;2023-04-01T23:04:15;6.60;99.90
20594;DHT22;10455;48.732;10.266;2023-04-01T23:09:19;6.40;99.90
20594;DHT22;10455;48.732;10.266;2023-04-01T23:14:46;6.10;99.90
20594;DHT22;10455;48.732;10.266;2023-04-01T23:19:54;6.10;99.90
20594;DHT22;10455;48.732;10.266;2023-04-01T23:25:10;6.10;99.90
20594;DHT22;10455;48.732;10.266;2023-04-01T23:40:52;6.40;99.90
20594;DHT22;10455;48.732;10.266;2023-04-01T23:45:55;6.50;99.90
20594;DHT22;10455;48.732;10.266;2023-04-01T23:50:59;6.50;99.90
20594;DHT22;10455;48.732;10.266;2023-04-01T23:56:02;6.70;99.90
